sensor_id;sensor_type;location;lat;lon;timestamp;P1;durP1;ratioP1;P2;durP2;ratioP2
44764;SDS011;30484;52.382;5.260;2023-11-21T00:00:09;81.50;;;28.10;;
44764;SDS011;30484;52.382;5.260;2023-11-21T00:02:40;69.57;;;27.70;;
44764;SDS011;30484;52.382;5.260;2023-11-21T00:05:10;82.35;;;28.45;;
44764;SDS011;30484;52.382;5.260;2023-11-21T00:07:40;77.13;;;28.50;;
44764;SDS011;30484;52.382;5.260;2023-11-21T00:10:10;82.13;;;28.58;;
44764;SDS011;30484;52.382;5.260;2023-11-21T00:12:42;81.28;;;29.88;;
44764;SDS011;30484;52.382;5.260;2023-11-21T00:15:11;66.63;;;28.75;;
44764;SDS011;30484;52.382;5.260;2023-11-21T00:17:39;81.60;;;28.75;;
44764;SDS011;30484;52.382;5.260;2023-11-21T00:20:09;78.38;;;29.73;;
44764;SDS011;30484;52.382;5.260;2023-11-21T00:22:40;75.32;;;28.02;;
44764;SDS011;30484;52.382;5.260;2023-11-21T00:25:09;75.20;;;28.48;;
44764;SDS011;30484;52.382;5.260;2023-11-21T00:27:42;72.25;;;28.98;;
44764;SDS011;30484;52.382;5.260;2023-11-21T00:30:11;76.57;;;28.67;;
44764;SDS011;30484;52.382;5.260;2023-11-21T00:32:41;81.32;;;28.92;;
44764;SDS011;30484;52.382;5.260;2023-11-21T00:35:10;74.57;;;30.17;;
44764;SDS011;30484;52.382;5.260;2023-11-21T00:37:38;85.32;;;28.98;;
44764;SDS011;30484;52.382;5.260;2023-11-21T00:40:07;81.70;;;29.90;;
44764;SDS011;30484;52.382;5.260;2023-11-21T00:42:38;86.35;;;28.77;;
44764;SDS011;30484;52.382;5.260;2023-11-21T00:45:09;73.25;;;28.13;;
44764;SDS011;30484;52.382;5.260;2023-11-21T00:47:37;71.85;;;29.45;;
44764;SDS011;30484;52.382;5.260;2023-11-21T00:50:06;84.18;;;29.30;;
44764;SDS011;30484;52.382;5.260;2023-11-21T00:52:36;78.68;;;27.80;;
44764;SDS011;30484;52.382;5.260;2023-11-21T00:55:05;73.60;;;28.98;;
44764;SDS011;30484;52.382;5.260;2023-11-21T00:57:34;73.70;;;28.08;;
44764;SDS011;30484;52.382;5.260;2023-11-21T01:00:04;72.22;;;27.35;;
44764;SDS011;30484;52.382;5.260;2023-11-21T01:02:40;73.80;;;27.95;;
44764;SDS011;30484;52.382;5.260;2023-11-21T01:05:09;71.82;;;28.10;;
44764;SDS011;30484;52.382;5.260;2023-11-21T01:07:38;81.47;;;30.00;;
44764;SDS011;30484;52.382;5.260;2023-11-21T01:10:07;79.65;;;28.23;;
44764;SDS011;30484;52.382;5.260;2023-11-21T01:12:37;69.43;;;28.00;;
44764;SDS011;30484;52.382;5.260;2023-11-21T01:15:08;81.40;;;28.50;;
44764;SDS011;30484;52.382;5.260;2023-11-21T01:17:38;76.88;;;28.15;;
44764;SDS011;30484;52.382;5.260;2023-11-21T01:20:08;79.47;;;28.85;;
44764;SDS011;30484;52.382;5.260;2023-11-21T01:22:40;76.78;;;28.15;;
44764;SDS011;30484;52.382;5.260;2023-11-21T01:25:09;71.13;;;27.60;;
44764;SDS011;30484;52.382;5.260;2023-11-21T01:27:40;86.95;;;28.88;;
44764;SDS011;30484;52.382;5.260;2023-11-21T01:30:11;82.40;;;29.60;;
44764;SDS011;30484;52.382;5.260;2023-11-21T01:32:39;78.40;;;28.17;;
44764;SDS011;30484;52.382;5.260;2023-11-21T01:35:08;76.07;;;28.65;;
44764;SDS011;30484;52.382;5.260;2023-11-21T01:37:37;76.00;;;27.92;;
44764;SDS011;30484;52.382;5.260;2023-11-21T01:40:07;75.53;;;26.83;;
44764;SDS011;30484;52.382;5.260;2023-11-21T01:42:40;77.63;;;27.27;;
44764;SDS011;30484;52.382;5.260;2023-11-21T01:45:12;72.47;;;27.45;;
44764;SDS011;30484;52.382;5.260;2023-11-21T01:47:41;63.88;;;26.73;;
44764;SDS011;30484;52.382;5.260;2023-11-21T01:50:14;67.38;;;25.80;;
44764;SDS011;30484;52.382;5.260;2023-11-21T01:52:45;72.43;;;27.33;;
44764;SDS011;30484;52.382;5.260;2023-11-21T01:55:15;67.82;;;26.90;;
44764;SDS011;30484;52.382;5.260;2023-11-21T01:57:54;69.25;;;25.48;;
44764;SDS011;30484;52.382;5.260;2023-11-21T02:00:25;67.00;;;26.00;;
44764;SDS011;30484;52.382;5.260;2023-11-21T02:02:56;67.93;;;25.77;;
44764;SDS011;30484;52.382;5.260;2023-11-21T02:05:26;69.97;;;25.55;;
44764;SDS011;30484;52.382;5.260;2023-11-21T02:07:56;63.83;;;24.08;;
44764;SDS011;30484;52.382;5.260;2023-11-21T02:10:24;64.88;;;24.27;;
44764;SDS011;30484;52.382;5.260;2023-11-21T02:12:53;67.85;;;24.85;;
44764;SDS011;30484;52.382;5.260;2023-11-21T02:15:23;59.30;;;22.33;;
44764;SDS011;30484;52.382;5.260;2023-11-21T02:17:55;56.03;;;24.75;;
44764;SDS011;30484;52.382;5.260;2023-11-21T02:20:25;56.90;;;22.90;;
44764;SDS011;30484;52.382;5.260;2023-11-21T02:22:57;76.32;;;23.38;;
44764;SDS011;30484;52.382;5.260;2023-11-21T02:25:27;59.35;;;23.45;;
44764;SDS011;30484;52.382;5.260;2023-11-21T02:27:58;60.88;;;22.58;;
44764;SDS011;30484;52.382;5.260;2023-11-21T02:30:29;61.08;;;22.80;;
44764;SDS011;30484;52.382;5.260;2023-11-21T02:32:59;53.88;;;21.23;;
44764;SDS011;30484;52.382;5.260;2023-11-21T02:35:28;61.38;;;22.35;;
44764;SDS011;30484;52.382;5.260;2023-11-21T02:37:59;53.53;;;21.73;;
44764;SDS011;30484;52.382;5.260;2023-11-21T02:40:28;54.55;;;21.58;;
44764;SDS011;30484;52.382;5.260;2023-11-21T02:42:57;61.03;;;22.58;;
44764;SDS011;30484;52.382;5.260;2023-11-21T02:45:26;51.67;;;21.73;;
44764;SDS011;30484;52.382;5.260;2023-11-21T02:47:55;56.42;;;21.98;;
44764;SDS011;30484;52.382;5.260;2023-11-21T02:50:25;50.70;;;22.17;;
44764;SDS011;30484;52.382;5.260;2023-11-21T02:52:54;53.53;;;21.52;;
44764;SDS011;30484;52.382;5.260;2023-11-21T02:55:25;66.47;;;22.08;;
44764;SDS011;30484;52.382;5.260;2023-11-21T02:57:53;58.97;;;22.23;;
44764;SDS011;30484;52.382;5.260;2023-11-21T03:00:24;54.83;;;21.65;;
44764;SDS011;30484;52.382;5.260;2023-11-21T03:02:54;57.75;;;20.55;;
44764;SDS011;30484;52.382;5.260;2023-11-21T03:05:24;56.42;;;20.92;;
44764;SDS011;30484;52.382;5.260;2023-11-21T03:07:53;51.97;;;22.20;;
44764;SDS011;30484;52.382;5.260;2023-11-21T03:10:21;51.55;;;20.95;;
44764;SDS011;30484;52.382;5.260;2023-11-21T03:12:51;59.90;;;22.05;;
44764;SDS011;30484;52.382;5.260;2023-11-21T03:15:20;55.88;;;21.88;;
44764;SDS011;30484;52.382;5.260;2023-11-21T03:17:48;55.05;;;21.75;;
44764;SDS011;30484;52.382;5.260;2023-11-21T03:20:17;59.78;;;22.77;;
44764;SDS011;30484;52.382;5.260;2023-11-21T03:22:46;69.90;;;22.92;;
44764;SDS011;30484;52.382;5.260;2023-11-21T03:25:15;53.38;;;21.85;;
44764;SDS011;30484;52.382;5.260;2023-11-21T03:27:44;49.65;;;20.77;;
44764;SDS011;30484;52.382;5.260;2023-11-21T03:30:15;62.75;;;22.65;;
44764;SDS011;30484;52.382;5.260;2023-11-21T03:32:44;49.63;;;21.33;;
44764;SDS011;30484;52.382;5.260;2023-11-21T03:35:13;54.03;;;22.48;;
44764;SDS011;30484;52.382;5.260;2023-11-21T03:37:41;50.92;;;21.73;;
44764;SDS011;30484;52.382;5.260;2023-11-21T03:40:11;61.83;;;21.77;;
44764;SDS011;30484;52.382;5.260;2023-11-21T03:42:40;51.67;;;22.02;;
44764;SDS011;30484;52.382;5.260;2023-11-21T03:45:09;59.20;;;22.83;;
44764;SDS011;30484;52.382;5.260;2023-11-21T03:47:40;54.40;;;20.63;;
44764;SDS011;30484;52.382;5.260;2023-11-21T03:50:10;60.92;;;21.58;;
44764;SDS011;30484;52.382;5.260;2023-11-21T03:52:38;62.85;;;21.38;;
44764;SDS011;30484;52.382;5.260;2023-11-21T03:55:07;53.95;;;21.00;;
44764;SDS011;30484;52.382;5.260;2023-11-21T03:57:37;53.95;;;21.67;;
44764;SDS011;30484;52.382;5.260;2023-11-21T04:00:06;61.45;;;22.00;;
44764;SDS011;30484;52.382;5.260;2023-11-21T04:02:37;50.95;;;19.95;;
44764;SDS011;30484;52.382;5.260;2023-11-21T04:05:07;56.83;;;20.50;;
44764;SDS011;30484;52.382;5.260;2023-11-21T04:07:36;58.03;;;20.13;;
44764;SDS011;30484;52.382;5.260;2023-11-21T04:10:06;55.13;;;20.05;;
44764;SDS011;30484;52.382;5.260;2023-11-21T04:12:38;58.70;;;20.33;;
44764;SDS011;30484;52.382;5.260;2023-11-21T04:15:07;53.17;;;19.55;;
44764;SDS011;30484;52.382;5.260;2023-11-21T04:17:37;59.97;;;19.00;;
44764;SDS011;30484;52.382;5.260;2023-11-21T04:20:08;58.83;;;18.75;;
44764;SDS011;30484;52.382;5.260;2023-11-21T04:22:38;48.90;;;20.13;;
44764;SDS011;30484;52.382;5.260;2023-11-21T04:25:10;63.55;;;19.25;;
44764;SDS011;30484;52.382;5.260;2023-11-21T04:27:42;56.67;;;19.08;;
44764;SDS011;30484;52.382;5.260;2023-11-21T04:30:12;50.00;;;19.17;;
44764;SDS011;30484;52.382;5.260;2023-11-21T04:32:42;55.95;;;18.90;;
44764;SDS011;30484;52.382;5.260;2023-11-21T04:35:11;67.82;;;20.88;;
44764;SDS011;30484;52.382;5.260;2023-11-21T04:37:41;48.63;;;18.95;;
44764;SDS011;30484;52.382;5.260;2023-11-21T04:40:10;49.00;;;17.98;;
44764;SDS011;30484;52.382;5.260;2023-11-21T04:42:40;51.83;;;19.23;;
44764;SDS011;30484;52.382;5.260;2023-11-21T04:45:08;50.47;;;18.15;;
44764;SDS011;30484;52.382;5.260;2023-11-21T04:47:39;62.50;;;19.17;;
44764;SDS011;30484;52.382;5.260;2023-11-21T04:50:08;49.65;;;18.63;;
44764;SDS011;30484;52.382;5.260;2023-11-21T04:52:38;54.50;;;17.80;;
44764;SDS011;30484;52.382;5.260;2023-11-21T04:55:07;63.13;;;19.88;;
44764;SDS011;30484;52.382;5.260;2023-11-21T04:57:37;56.70;;;18.35;;
44764;SDS011;30484;52.382;5.260;2023-11-21T05:00:08;53.33;;;17.02;;
44764;SDS011;30484;52.382;5.260;2023-11-21T05:02:39;46.15;;;16.30;;
44764;SDS011;30484;52.382;5.260;2023-11-21T05:05:10;40.90;;;16.15;;
44764;SDS011;30484;52.382;5.260;2023-11-21T05:07:40;50.45;;;15.05;;
44764;SDS011;30484;52.382;5.260;2023-11-21T05:10:09;41.58;;;13.77;;
44764;SDS011;30484;52.382;5.260;2023-11-21T05:12:41;48.03;;;13.45;;
44764;SDS011;30484;52.382;5.260;2023-11-21T05:15:12;35.60;;;11.88;;
44764;SDS011;30484;52.382;5.260;2023-11-21T05:17:44;39.33;;;12.98;;
44764;SDS011;30484;52.382;5.260;2023-11-21T05:20:15;38.22;;;12.73;;
44764;SDS011;30484;52.382;5.260;2023-11-21T05:22:48;39.15;;;11.68;;
44764;SDS011;30484;52.382;5.260;2023-11-21T05:25:17;31.70;;;11.80;;
44764;SDS011;30484;52.382;5.260;2023-11-21T05:27:46;30.77;;;11.18;;
44764;SDS011;30484;52.382;5.260;2023-11-21T05:30:14;31.55;;;10.77;;
44764;SDS011;30484;52.382;5.260;2023-11-21T05:32:42;31.60;;;10.05;;
44764;SDS011;30484;52.382;5.260;2023-11-21T05:35:13;31.92;;;10.68;;
44764;SDS011;30484;52.382;5.260;2023-11-21T05:37:44;23.83;;;9.82;;
44764;SDS011;30484;52.382;5.260;2023-11-21T05:40:14;37.25;;;10.30;;
44764;SDS011;30484;52.382;5.260;2023-11-21T05:42:43;28.52;;;9.40;;
44764;SDS011;30484;52.382;5.260;2023-11-21T05:45:12;26.95;;;8.45;;
44764;SDS011;30484;52.382;5.260;2023-11-21T05:47:42;32.92;;;9.40;;
44764;SDS011;30484;52.382;5.260;2023-11-21T05:50:13;30.58;;;8.25;;
44764;SDS011;30484;52.382;5.260;2023-11-21T05:52:45;32.63;;;8.85;;
44764;SDS011;30484;52.382;5.260;2023-11-21T05:55:16;28.77;;;8.77;;
44764;SDS011;30484;52.382;5.260;2023-11-21T05:57:47;36.60;;;8.85;;
44764;SDS011;30484;52.382;5.260;2023-11-21T06:00:16;29.20;;;8.38;;
44764;SDS011;30484;52.382;5.260;2023-11-21T06:02:47;42.85;;;8.73;;
44764;SDS011;30484;52.382;5.260;2023-11-21T06:05:19;34.25;;;7.75;;
44764;SDS011;30484;52.382;5.260;2023-11-21T06:07:51;27.45;;;8.52;;
44764;SDS011;30484;52.382;5.260;2023-11-21T06:10:23;38.45;;;8.40;;
44764;SDS011;30484;52.382;5.260;2023-11-21T06:12:52;39.92;;;8.40;;
44764;SDS011;30484;52.382;5.260;2023-11-21T06:15:21;37.30;;;9.55;;
44764;SDS011;30484;52.382;5.260;2023-11-21T06:17:51;32.72;;;8.02;;
44764;SDS011;30484;52.382;5.260;2023-11-21T06:20:20;41.60;;;9.32;;
44764;SDS011;30484;52.382;5.260;2023-11-21T06:22:50;41.83;;;9.52;;
44764;SDS011;30484;52.382;5.260;2023-11-21T06:25:19;37.05;;;8.93;;
44764;SDS011;30484;52.382;5.260;2023-11-21T06:27:50;38.80;;;8.68;;
44764;SDS011;30484;52.382;5.260;2023-11-21T06:30:20;32.15;;;8.82;;
44764;SDS011;30484;52.382;5.260;2023-11-21T06:32:50;35.63;;;8.32;;
44764;SDS011;30484;52.382;5.260;2023-11-21T06:35:19;40.67;;;9.52;;
44764;SDS011;30484;52.382;5.260;2023-11-21T06:37:48;35.58;;;8.85;;
44764;SDS011;30484;52.382;5.260;2023-11-21T06:40:18;34.42;;;8.27;;
44764;SDS011;30484;52.382;5.260;2023-11-21T06:42:48;25.17;;;7.90;;
44764;SDS011;30484;52.382;5.260;2023-11-21T06:45:18;29.75;;;8.15;;
44764;SDS011;30484;52.382;5.260;2023-11-21T06:47:48;26.02;;;8.13;;
44764;SDS011;30484;52.382;5.260;2023-11-21T06:50:17;31.45;;;8.77;;
44764;SDS011;30484;52.382;5.260;2023-11-21T06:52:45;24.58;;;7.65;;
44764;SDS011;30484;52.382;5.260;2023-11-21T06:55:15;22.88;;;8.27;;
44764;SDS011;30484;52.382;5.260;2023-11-21T06:57:43;26.63;;;8.95;;
44764;SDS011;30484;52.382;5.260;2023-11-21T07:00:15;27.83;;;9.60;;
44764;SDS011;30484;52.382;5.260;2023-11-21T07:02:45;28.33;;;8.75;;
44764;SDS011;30484;52.382;5.260;2023-11-21T07:05:14;27.98;;;8.85;;
44764;SDS011;30484;52.382;5.260;2023-11-21T07:07:50;22.83;;;9.43;;
44764;SDS011;30484;52.382;5.260;2023-11-21T07:10:20;28.30;;;10.02;;
44764;SDS011;30484;52.382;5.260;2023-11-21T07:12:49;26.27;;;10.32;;
44764;SDS011;30484;52.382;5.260;2023-11-21T07:15:20;35.30;;;11.27;;
44764;SDS011;30484;52.382;5.260;2023-11-21T07:17:49;26.35;;;9.57;;
44764;SDS011;30484;52.382;5.260;2023-11-21T07:20:17;29.25;;;9.80;;
44764;SDS011;30484;52.382;5.260;2023-11-21T07:22:45;30.50;;;11.13;;
44764;SDS011;30484;52.382;5.260;2023-11-21T07:25:15;27.60;;;10.88;;
44764;SDS011;30484;52.382;5.260;2023-11-21T07:27:43;29.77;;;10.98;;
44764;SDS011;30484;52.382;5.260;2023-11-21T07:30:12;32.60;;;11.75;;
44764;SDS011;30484;52.382;5.260;2023-11-21T07:32:42;28.92;;;11.40;;
44764;SDS011;30484;52.382;5.260;2023-11-21T07:35:11;35.58;;;11.50;;
44764;SDS011;30484;52.382;5.260;2023-11-21T07:37:39;29.33;;;10.13;;
44764;SDS011;30484;52.382;5.260;2023-11-21T07:40:09;28.02;;;11.05;;
44764;SDS011;30484;52.382;5.260;2023-11-21T07:42:40;25.73;;;9.07;;
44764;SDS011;30484;52.382;5.260;2023-11-21T07:45:09;29.08;;;10.63;;
44764;SDS011;30484;52.382;5.260;2023-11-21T07:47:38;25.10;;;9.32;;
44764;SDS011;30484;52.382;5.260;2023-11-21T07:50:09;24.30;;;8.98;;
44764;SDS011;30484;52.382;5.260;2023-11-21T07:52:40;21.08;;;8.45;;
44764;SDS011;30484;52.382;5.260;2023-11-21T07:55:08;19.98;;;8.15;;
44764;SDS011;30484;52.382;5.260;2023-11-21T07:57:38;20.15;;;7.63;;
44764;SDS011;30484;52.382;5.260;2023-11-21T08:00:06;18.27;;;8.02;;
44764;SDS011;30484;52.382;5.260;2023-11-21T08:02:38;21.33;;;8.63;;
44764;SDS011;30484;52.382;5.260;2023-11-21T08:05:11;17.70;;;8.02;;
44764;SDS011;30484;52.382;5.260;2023-11-21T08:07:50;20.10;;;8.30;;
44764;SDS011;30484;52.382;5.260;2023-11-21T08:10:19;18.08;;;8.50;;
44764;SDS011;30484;52.382;5.260;2023-11-21T08:12:49;18.92;;;8.82;;
44764;SDS011;30484;52.382;5.260;2023-11-21T08:15:18;19.95;;;8.15;;
44764;SDS011;30484;52.382;5.260;2023-11-21T08:17:47;19.63;;;8.88;;
44764;SDS011;30484;52.382;5.260;2023-11-21T08:20:17;21.83;;;8.63;;
44764;SDS011;30484;52.382;5.260;2023-11-21T08:22:46;19.08;;;8.77;;
44764;SDS011;30484;52.382;5.260;2023-11-21T08:25:15;20.58;;;9.13;;
44764;SDS011;30484;52.382;5.260;2023-11-21T08:27:46;17.98;;;8.27;;
44764;SDS011;30484;52.382;5.260;2023-11-21T08:30:15;21.55;;;9.32;;
44764;SDS011;30484;52.382;5.260;2023-11-21T08:32:46;19.42;;;8.88;;
44764;SDS011;30484;52.382;5.260;2023-11-21T08:35:15;14.20;;;7.45;;
44764;SDS011;30484;52.382;5.260;2023-11-21T08:37:45;14.52;;;6.57;;
44764;SDS011;30484;52.382;5.260;2023-11-21T08:40:14;13.38;;;6.65;;
44764;SDS011;30484;52.382;5.260;2023-11-21T08:42:44;13.68;;;6.45;;
44764;SDS011;30484;52.382;5.260;2023-11-21T08:45:13;13.18;;;6.25;;
44764;SDS011;30484;52.382;5.260;2023-11-21T08:47:43;14.55;;;7.28;;
44764;SDS011;30484;52.382;5.260;2023-11-21T08:50:13;17.02;;;8.30;;
44764;SDS011;30484;52.382;5.260;2023-11-21T08:52:43;15.57;;;8.32;;
44764;SDS011;30484;52.382;5.260;2023-11-21T08:55:13;19.90;;;8.95;;
44764;SDS011;30484;52.382;5.260;2023-11-21T08:57:43;16.90;;;8.68;;
44764;SDS011;30484;52.382;5.260;2023-11-21T09:00:13;23.88;;;9.90;;
44764;SDS011;30484;52.382;5.260;2023-11-21T09:02:44;18.67;;;8.65;;
44764;SDS011;30484;52.382;5.260;2023-11-21T09:05:13;17.95;;;9.23;;
44764;SDS011;30484;52.382;5.260;2023-11-21T09:07:44;22.23;;;9.75;;
44764;SDS011;30484;52.382;5.260;2023-11-21T09:10:15;22.58;;;10.20;;
44764;SDS011;30484;52.382;5.260;2023-11-21T09:12:44;22.17;;;9.55;;
44764;SDS011;30484;52.382;5.260;2023-11-21T09:15:12;27.42;;;10.50;;
44764;SDS011;30484;52.382;5.260;2023-11-21T09:17:41;22.00;;;10.80;;
44764;SDS011;30484;52.382;5.260;2023-11-21T09:20:11;26.33;;;11.45;;
44764;SDS011;30484;52.382;5.260;2023-11-21T09:22:42;28.00;;;11.38;;
44764;SDS011;30484;52.382;5.260;2023-11-21T09:25:14;26.65;;;11.13;;
44764;SDS011;30484;52.382;5.260;2023-11-21T09:27:44;26.90;;;10.85;;
44764;SDS011;30484;52.382;5.260;2023-11-21T09:30:13;29.00;;;11.60;;
44764;SDS011;30484;52.382;5.260;2023-11-21T09:32:43;29.80;;;11.75;;
44764;SDS011;30484;52.382;5.260;2023-11-21T09:35:12;27.23;;;13.13;;
44764;SDS011;30484;52.382;5.260;2023-11-21T09:37:42;34.70;;;12.98;;
44764;SDS011;30484;52.382;5.260;2023-11-21T09:40:16;34.40;;;12.95;;
44764;SDS011;30484;52.382;5.260;2023-11-21T09:42:53;29.00;;;13.55;;
44764;SDS011;30484;52.382;5.260;2023-11-21T09:45:25;31.13;;;13.82;;
44764;SDS011;30484;52.382;5.260;2023-11-21T09:47:55;34.45;;;13.45;;
44764;SDS011;30484;52.382;5.260;2023-11-21T09:50:25;38.55;;;13.73;;
44764;SDS011;30484;52.382;5.260;2023-11-21T09:52:55;37.67;;;15.43;;
44764;SDS011;30484;52.382;5.260;2023-11-21T09:55:35;36.42;;;14.25;;
44764;SDS011;30484;52.382;5.260;2023-11-21T09:58:05;39.10;;;14.77;;
44764;SDS011;30484;52.382;5.260;2023-11-21T10:00:34;38.70;;;14.32;;
44764;SDS011;30484;52.382;5.260;2023-11-21T10:03:02;35.30;;;13.65;;
44764;SDS011;30484;52.382;5.260;2023-11-21T10:05:31;34.13;;;13.65;;
44764;SDS011;30484;52.382;5.260;2023-11-21T10:08:01;32.05;;;14.35;;
44764;SDS011;30484;52.382;5.260;2023-11-21T10:10:32;35.75;;;14.00;;
44764;SDS011;30484;52.382;5.260;2023-11-21T10:13:03;30.83;;;14.38;;
44764;SDS011;30484;52.382;5.260;2023-11-21T10:15:34;31.27;;;12.95;;
44764;SDS011;30484;52.382;5.260;2023-11-21T10:18:03;31.05;;;13.90;;
44764;SDS011;30484;52.382;5.260;2023-11-21T10:20:33;31.67;;;14.32;;
44764;SDS011;30484;52.382;5.260;2023-11-21T10:23:04;28.80;;;13.88;;
44764;SDS011;30484;52.382;5.260;2023-11-21T10:25:35;31.90;;;13.88;;
44764;SDS011;30484;52.382;5.260;2023-11-21T10:28:04;28.30;;;13.13;;
44764;SDS011;30484;52.382;5.260;2023-11-21T10:30:33;27.70;;;13.43;;
44764;SDS011;30484;52.382;5.260;2023-11-21T10:33:04;26.80;;;12.43;;
44764;SDS011;30484;52.382;5.260;2023-11-21T10:35:38;28.63;;;13.65;;
44764;SDS011;30484;52.382;5.260;2023-11-21T10:38:13;28.63;;;13.02;;
44764;SDS011;30484;52.382;5.260;2023-11-21T10:40:43;26.23;;;12.68;;
44764;SDS011;30484;52.382;5.260;2023-11-21T10:43:13;27.35;;;13.13;;
44764;SDS011;30484;52.382;5.260;2023-11-21T10:45:42;23.85;;;11.73;;
44764;SDS011;30484;52.382;5.260;2023-11-21T10:48:13;25.27;;;11.52;;
44764;SDS011;30484;52.382;5.260;2023-11-21T10:50:43;20.58;;;11.02;;
44764;SDS011;30484;52.382;5.260;2023-11-21T10:53:13;22.10;;;11.38;;
44764;SDS011;30484;52.382;5.260;2023-11-21T10:55:44;20.73;;;10.77;;
44764;SDS011;30484;52.382;5.260;2023-11-21T10:58:13;19.20;;;10.07;;
44764;SDS011;30484;52.382;5.260;2023-11-21T11:00:43;23.40;;;10.15;;
44764;SDS011;30484;52.382;5.260;2023-11-21T11:03:12;21.30;;;9.07;;
44764;SDS011;30484;52.382;5.260;2023-11-21T11:05:43;24.52;;;10.30;;
44764;SDS011;30484;52.382;5.260;2023-11-21T11:08:19;20.42;;;10.25;;
44764;SDS011;30484;52.382;5.260;2023-11-21T11:10:55;21.20;;;10.77;;
44764;SDS011;30484;52.382;5.260;2023-11-21T11:13:25;20.25;;;10.70;;
44764;SDS011;30484;52.382;5.260;2023-11-21T11:15:56;23.15;;;10.52;;
44764;SDS011;30484;52.382;5.260;2023-11-21T11:18:28;21.00;;;10.95;;
44764;SDS011;30484;52.382;5.260;2023-11-21T11:21:00;22.17;;;10.70;;
44764;SDS011;30484;52.382;5.260;2023-11-21T11:23:45;22.65;;;11.20;;
44764;SDS011;30484;52.382;5.260;2023-11-21T11:26:36;31.15;;;13.13;;
44764;SDS011;30484;52.382;5.260;2023-11-21T11:29:14;40.92;;;18.65;;
44764;SDS011;30484;52.382;5.260;2023-11-21T11:31:55;46.63;;;20.40;;
44764;SDS011;30484;52.382;5.260;2023-11-21T11:34:39;46.53;;;20.33;;
44764;SDS011;30484;52.382;5.260;2023-11-21T11:37:16;43.75;;;20.45;;
44764;SDS011;30484;52.382;5.260;2023-11-21T11:39:45;40.40;;;18.67;;
44764;SDS011;30484;52.382;5.260;2023-11-21T11:42:16;49.40;;;20.30;;
44764;SDS011;30484;52.382;5.260;2023-11-21T11:44:47;43.72;;;19.67;;
44764;SDS011;30484;52.382;5.260;2023-11-21T11:47:24;47.22;;;20.48;;
44764;SDS011;30484;52.382;5.260;2023-11-21T11:50:02;48.63;;;22.10;;
44764;SDS011;30484;52.382;5.260;2023-11-21T11:52:35;45.08;;;19.15;;
44764;SDS011;30484;52.382;5.260;2023-11-21T11:55:09;48.97;;;21.23;;
44764;SDS011;30484;52.382;5.260;2023-11-21T11:57:40;48.15;;;20.45;;
44764;SDS011;30484;52.382;5.260;2023-11-21T12:00:10;49.55;;;20.08;;
44764;SDS011;30484;52.382;5.260;2023-11-21T12:02:46;49.78;;;20.73;;
44764;SDS011;30484;52.382;5.260;2023-11-21T12:05:16;48.92;;;21.63;;
44764;SDS011;30484;52.382;5.260;2023-11-21T12:07:48;46.17;;;21.77;;
44764;SDS011;30484;52.382;5.260;2023-11-21T12:10:20;49.13;;;21.48;;
44764;SDS011;30484;52.382;5.260;2023-11-21T12:12:54;44.85;;;20.85;;
44764;SDS011;30484;52.382;5.260;2023-11-21T12:15:24;43.03;;;20.67;;
44764;SDS011;30484;52.382;5.260;2023-11-21T12:17:55;40.75;;;19.67;;
44764;SDS011;30484;52.382;5.260;2023-11-21T12:20:27;38.38;;;19.95;;
44764;SDS011;30484;52.382;5.260;2023-11-21T12:22:57;40.75;;;19.65;;
44764;SDS011;30484;52.382;5.260;2023-11-21T12:25:28;40.10;;;18.80;;
44764;SDS011;30484;52.382;5.260;2023-11-21T12:28:01;33.50;;;17.40;;
44764;SDS011;30484;52.382;5.260;2023-11-21T12:30:33;35.05;;;16.98;;
44764;SDS011;30484;52.382;5.260;2023-11-21T12:33:02;38.38;;;18.70;;
44764;SDS011;30484;52.382;5.260;2023-11-21T12:35:34;33.90;;;18.20;;
44764;SDS011;30484;52.382;5.260;2023-11-21T12:38:03;36.58;;;17.92;;
44764;SDS011;30484;52.382;5.260;2023-11-21T12:40:35;34.47;;;17.38;;
44764;SDS011;30484;52.382;5.260;2023-11-21T12:43:06;31.30;;;16.13;;
44764;SDS011;30484;52.382;5.260;2023-11-21T12:45:36;31.15;;;16.02;;
44764;SDS011;30484;52.382;5.260;2023-11-21T12:48:05;35.60;;;17.73;;
44764;SDS011;30484;52.382;5.260;2023-11-21T12:50:37;33.90;;;17.13;;
44764;SDS011;30484;52.382;5.260;2023-11-21T12:53:08;36.47;;;16.52;;
44764;SDS011;30484;52.382;5.260;2023-11-21T12:55:40;38.40;;;16.92;;
44764;SDS011;30484;52.382;5.260;2023-11-21T12:58:11;36.60;;;17.65;;
44764;SDS011;30484;52.382;5.260;2023-11-21T13:00:42;39.15;;;16.75;;
44764;SDS011;30484;52.382;5.260;2023-11-21T13:03:13;33.80;;;16.50;;
44764;SDS011;30484;52.382;5.260;2023-11-21T13:05:46;38.28;;;17.50;;
44764;SDS011;30484;52.382;5.260;2023-11-21T13:08:18;34.90;;;17.13;;
44764;SDS011;30484;52.382;5.260;2023-11-21T13:10:50;38.72;;;17.65;;
44764;SDS011;30484;52.382;5.260;2023-11-21T13:13:23;43.05;;;18.85;;
44764;SDS011;30484;52.382;5.260;2023-11-21T13:15:55;36.33;;;18.70;;
44764;SDS011;30484;52.382;5.260;2023-11-21T13:18:27;37.65;;;17.95;;
44764;SDS011;30484;52.382;5.260;2023-11-21T13:20:58;35.45;;;17.23;;
44764;SDS011;30484;52.382;5.260;2023-11-21T13:23:34;34.70;;;17.08;;
44764;SDS011;30484;52.382;5.260;2023-11-21T13:26:04;37.22;;;17.05;;
44764;SDS011;30484;52.382;5.260;2023-11-21T13:28:35;36.67;;;16.67;;
44764;SDS011;30484;52.382;5.260;2023-11-21T13:31:05;33.90;;;16.48;;
44764;SDS011;30484;52.382;5.260;2023-11-21T13:33:47;28.58;;;14.55;;
44764;SDS011;30484;52.382;5.260;2023-11-21T13:36:23;24.38;;;14.65;;
44764;SDS011;30484;52.382;5.260;2023-11-21T13:38:52;26.52;;;13.93;;
44764;SDS011;30484;52.382;5.260;2023-11-21T13:41:21;24.85;;;12.57;;
44764;SDS011;30484;52.382;5.260;2023-11-21T13:43:59;24.13;;;12.40;;
44764;SDS011;30484;52.382;5.260;2023-11-21T13:46:41;20.90;;;12.02;;
44764;SDS011;30484;52.382;5.260;2023-11-21T13:49:10;18.20;;;11.10;;
44764;SDS011;30484;52.382;5.260;2023-11-21T13:51:41;22.27;;;11.73;;
44764;SDS011;30484;52.382;5.260;2023-11-21T13:54:11;18.92;;;11.50;;
44764;SDS011;30484;52.382;5.260;2023-11-21T13:56:41;19.20;;;11.35;;
44764;SDS011;30484;52.382;5.260;2023-11-21T13:59:13;18.85;;;11.85;;
44764;SDS011;30484;52.382;5.260;2023-11-21T14:01:48;19.52;;;12.07;;
44764;SDS011;30484;52.382;5.260;2023-11-21T14:04:26;22.17;;;12.45;;
44764;SDS011;30484;52.382;5.260;2023-11-21T14:07:19;19.70;;;11.88;;
44764;SDS011;30484;52.382;5.260;2023-11-21T14:09:56;18.98;;;12.23;;
44764;SDS011;30484;52.382;5.260;2023-11-21T14:12:25;21.40;;;13.45;;
44764;SDS011;30484;52.382;5.260;2023-11-21T14:14:56;21.10;;;12.88;;
44764;SDS011;30484;52.382;5.260;2023-11-21T14:17:25;22.42;;;13.35;;
44764;SDS011;30484;52.382;5.260;2023-11-21T14:19:53;18.48;;;12.68;;
44764;SDS011;30484;52.382;5.260;2023-11-21T14:22:22;22.08;;;13.68;;
44764;SDS011;30484;52.382;5.260;2023-11-21T14:24:52;24.05;;;14.57;;
44764;SDS011;30484;52.382;5.260;2023-11-21T14:27:25;23.98;;;14.68;;
44764;SDS011;30484;52.382;5.260;2023-11-21T14:29:53;22.50;;;13.98;;
44764;SDS011;30484;52.382;5.260;2023-11-21T14:32:24;22.13;;;14.40;;
44764;SDS011;30484;52.382;5.260;2023-11-21T14:34:52;22.92;;;14.13;;
44764;SDS011;30484;52.382;5.260;2023-11-21T14:37:21;19.08;;;12.75;;
44764;SDS011;30484;52.382;5.260;2023-11-21T14:39:50;19.95;;;12.63;;
44764;SDS011;30484;52.382;5.260;2023-11-21T14:42:18;20.63;;;12.10;;